4A9

Isbell Field Airport

Fort Payne, Alabama, USA
METAR K4A9 161955Z AUTO 26003KT 10SM CLR 28/22 A3000 RMK AO2
Observed Flight Rules
Jul-16 @ 19:55 UTC (13 minutes ago) Visual Flight Rules
Wind Visibility Clouds
260° at 3 knots 10 miles
  • Clear skies
Temperatures Readings
Current 28°C / 82°F
Dewpoint 22°C / 72°F
Humidity 70%
Altimeter 30" Hg
Pressure 1016 hPa
Elevation 267
METAR K4A9 161955Z AUTO 26003KT 10SM CLR 28/22 A3000 RMK AO2
Observed Flight Rules
Jul-16 @ 19:55 UTC
(13 minutes ago)
VFR
Wind Visibility
260° at 3 knots 10 miles
Clouds
  • Clear skies
Temperature Dewpoint
28°C / 82°F 22°C / 72°F
Humidity Altimeter Pressure
70% 30" Hg 1016 hPa